Time;durP1;ratioP1;P1;durP2;ratioP2;P2;SDS_P1;SDS_P2;PMS_P1;PMS_P2;Temp;Humidity;BMP_temperature;BMP_pressure;BME280_temperature;BME280_humidity;BME280_pressure;Samples;Min_cycle;Max_cycle;Signal;HPM_P1;HPM_P2
2022/06/30 00:00:41;;;;;;;4.25;2.70;;;22.50;64.20;;;;;;5048530;28;20057;-61
2022/06/30 00:03:08;;;;;;;6.05;3.03;;;22.50;64.20;;;;;;5046278;28;20025;-60
2022/06/30 00:05:33;;;;;;;5.20;3.15;;;22.50;64.20;;;;;;5052805;28;20033;-60
2022/06/30 00:07:59;;;;;;;5.50;2.85;;;22.50;64.20;;;;;;5039452;28;20053;-61
2022/06/30 00:10:25;;;;;;;3.70;2.80;;;22.50;64.30;;;;;;5055519;28;20025;-61
2022/06/30 00:12:51;;;;;;;3.63;3.00;;;22.50;64.40;;;;;;5046874;28;20037;-62
2022/06/30 00:15:17;;;;;;;4.43;2.92;;;22.50;64.50;;;;;;5039613;28;20029;-61
2022/06/30 00:17:42;;;;;;;5.25;3.35;;;22.50;64.40;;;;;;5050524;28;20089;-60
2022/06/30 00:20:09;;;;;;;5.55;3.28;;;22.50;64.50;;;;;;5051677;28;20025;-62
2022/06/30 00:22:34;;;;;;;4.53;2.75;;;22.40;64.60;;;;;;5044927;28;20040;-61
2022/06/30 00:25:00;;;;;;;4.68;3.08;;;22.40;64.60;;;;;;5044272;28;20025;-60
2022/06/30 00:27:26;;;;;;;3.78;2.83;;;22.40;64.70;;;;;;5037021;28;20053;-61
2022/06/30 00:29:51;;;;;;;6.07;2.92;;;22.40;64.60;;;;;;5046286;28;20037;-61
2022/06/30 00:32:17;;;;;;;8.20;3.20;;;22.40;64.80;;;;;;5047062;28;20093;-60
2022/06/30 00:34:43;;;;;;;7.40;3.47;;;22.30;64.90;;;;;;5048200;28;20021;-63
2022/06/30 00:37:09;;;;;;;5.85;3.58;;;22.30;64.90;;;;;;5047140;28;20044;-60
2022/06/30 00:39:34;;;;;;;6.72;3.60;;;22.30;64.90;;;;;;5053192;28;20037;-61
2022/06/30 00:42:01;;;;;;;8.35;3.42;;;22.30;64.90;;;;;;5039147;28;20033;-62
2022/06/30 00:44:27;;;;;;;5.22;3.30;;;22.30;64.90;;;;;;5043309;28;20030;-60
2022/06/30 00:46:53;;;;;;;4.85;2.88;;;22.20;64.90;;;;;;5041309;28;20022;-60
2022/06/30 00:49:20;;;;;;;10.45;3.22;;;22.20;64.90;;;;;;5052332;28;20018;-60
2022/06/30 00:51:46;;;;;;;7.50;2.83;;;22.10;65.00;;;;;;5046770;28;20118;-61
2022/06/30 00:54:12;;;;;;;4.35;2.63;;;22.10;65.00;;;;;;5051928;28;20037;-61
2022/06/30 00:56:42;;;;;;;3.97;2.90;;;22.10;65.00;;;;;;5043604;28;20052;-61
2022/06/30 00:59:09;;;;;;;6.57;3.00;;;22.00;65.40;;;;;;5042364;28;20030;-61
2022/06/30 01:01:37;;;;;;;4.60;3.15;;;22.00;65.30;;;;;;5048638;28;20026;-60
2022/06/30 01:04:03;;;;;;;3.67;2.70;;;21.90;65.60;;;;;;5045342;28;20030;-61
2022/06/30 01:06:29;;;;;;;6.60;3.40;;;21.90;65.70;;;;;;5048728;28;20078;-60
2022/06/30 01:08:56;;;;;;;4.20;3.00;;;21.80;65.70;;;;;;5045886;28;20025;-61
2022/06/30 01:14:06;;;;;;;5.60;3.35;;;21.70;65.80;;;;;;5043482;28;20091;-60
2022/06/30 01:16:32;;;;;;;11.45;3.67;;;21.70;65.60;;;;;;5055098;28;20028;-60
2022/06/30 01:18:57;;;;;;;7.40;2.70;;;21.70;65.70;;;;;;5048270;28;20034;-60
2022/06/30 01:21:27;;;;;;;4.47;3.03;;;21.60;65.70;;;;;;5043845;28;20031;-60
2022/06/30 01:23:53;;;;;;;7.40;2.88;;;21.60;66.30;;;;;;5047114;28;20100;-60
2022/06/30 01:26:23;;;;;;;7.25;3.30;;;21.50;66.00;;;;;;5043492;28;20022;-61
2022/06/30 01:28:50;;;;;;;5.90;3.33;;;21.40;66.50;;;;;;5036231;28;20033;-61
2022/06/30 01:31:16;;;;;;;4.65;3.25;;;21.40;66.40;;;;;;5045318;28;20025;-60
2022/06/30 01:33:42;;;;;;;4.18;3.03;;;21.30;66.40;;;;;;5045380;28;20071;-60
2022/06/30 01:36:08;;;;;;;6.25;3.08;;;21.20;66.50;;;;;;5052657;28;20445;-61
2022/06/30 01:38:33;;;;;;;6.55;3.20;;;21.20;66.70;;;;;;5041556;28;20034;-60
2022/06/30 01:40:59;;;;;;;4.60;2.92;;;21.10;66.80;;;;;;5045067;28;20029;-60
2022/06/30 01:43:25;;;;;;;12.98;3.22;;;21.10;66.90;;;;;;5043691;28;20025;-60
2022/06/30 01:45:50;;;;;;;4.40;3.35;;;21.00;66.70;;;;;;5043018;28;20030;-60
2022/06/30 01:48:16;;;;;;;4.72;3.22;;;21.00;66.90;;;;;;5043368;28;20026;-61
2022/06/30 01:50:42;;;;;;;7.63;3.40;;;21.00;66.90;;;;;;5045079;28;20122;-61
2022/06/30 01:53:08;;;;;;;5.22;3.13;;;20.90;66.90;;;;;;5047457;28;20062;-61
2022/06/30 01:55:33;;;;;;;5.32;2.80;;;20.90;67.10;;;;;;5045699;28;20067;-61
2022/06/30 01:57:59;;;;;;;7.47;3.08;;;20.90;67.30;;;;;;5039505;28;20048;-61
2022/06/30 02:00:26;;;;;;;4.72;3.28;;;20.90;67.30;;;;;;5046125;28;20044;-60
2022/06/30 02:02:55;;;;;;;5.35;3.00;;;20.80;67.50;;;;;;5042296;28;20021;-60
2022/06/30 02:05:22;;;;;;;4.82;3.08;;;20.80;67.60;;;;;;5045837;28;20416;-60
2022/06/30 02:07:48;;;;;;;3.92;2.90;;;20.80;67.60;;;;;;5036691;28;20085;-60
2022/06/30 02:10:19;;;;;;;8.00;2.80;;;20.80;67.60;;;;;;5052060;28;20037;-61
2022/06/30 02:12:45;;;;;;;5.72;3.03;;;20.70;67.80;;;;;;5040997;28;20088;-61
2022/06/30 02:15:13;;;;;;;4.72;3.33;;;20.70;67.70;;;;;;5047527;28;20066;-59
2022/06/30 02:17:39;;;;;;;7.80;2.90;;;20.70;67.50;;;;;;5043598;28;20029;-61
2022/06/30 02:20:07;;;;;;;7.93;2.90;;;20.70;67.50;;;;;;5051800;28;20029;-61
2022/06/30 02:22:33;;;;;;;9.10;3.53;;;20.60;67.50;;;;;;5045305;28;20040;-61
2022/06/30 02:24:59;;;;;;;5.15;2.95;;;20.60;67.50;;;;;;5047488;28;20048;-61
2022/06/30 02:27:26;;;;;;;6.68;3.28;;;20.60;67.50;;;;;;5045771;28;20049;-60
2022/06/30 02:29:52;;;;;;;5.97;2.63;;;20.50;67.40;;;;;;5046304;28;20882;-60
2022/06/30 02:32:19;;;;;;;8.15;3.38;;;20.50;67.40;;;;;;5046009;28;20148;-62
2022/06/30 02:34:45;;;;;;;11.02;3.42;;;20.50;67.60;;;;;;5045214;28;20033;-61
2022/06/30 02:37:10;;;;;;;6.38;3.20;;;20.50;67.80;;;;;;5057701;28;20037;-61
2022/06/30 02:39:36;;;;;;;6.95;3.25;;;20.40;67.70;;;;;;5057608;28;20025;-61
2022/06/30 02:42:02;;;;;;;4.70;3.33;;;20.40;67.60;;;;;;5044683;28;20037;-62
2022/06/30 02:44:27;;;;;;;6.90;2.88;;;20.40;67.60;;;;;;5048327;28;20044;-60
2022/06/30 02:46:54;;;;;;;3.80;2.75;;;20.30;67.60;;;;;;5052048;28;20049;-61
2022/06/30 02:49:21;;;;;;;6.32;3.22;;;20.30;67.80;;;;;;5050109;28;20044;-62
2022/06/30 02:51:47;;;;;;;7.72;3.60;;;20.30;67.80;;;;;;5056736;28;20029;-62
2022/06/30 02:54:14;;;;;;;5.18;3.03;;;20.20;68.00;;;;;;5046321;28;20021;-61
2022/06/30 02:56:40;;;;;;;5.80;3.60;;;20.20;68.10;;;;;;5052315;28;20026;-59
2022/06/30 02:59:06;;;;;;;6.07;3.58;;;20.20;68.00;;;;;;5045667;28;20025;-61
2022/06/30 03:01:32;;;;;;;5.50;3.45;;;20.10;67.90;;;;;;5046979;28;20043;-60
2022/06/30 03:03:58;;;;;;;7.18;3.78;;;20.10;67.80;;;;;;5050570;28;20081;-61
2022/06/30 03:06:23;;;;;;;4.82;3.25;;;20.10;68.00;;;;;;5051712;28;20025;-60
2022/06/30 03:08:49;;;;;;;10.23;3.53;;;20.10;68.20;;;;;;5052685;28;20060;-59
2022/06/30 03:11:17;;;;;;;5.30;2.95;;;20.10;68.20;;;;;;5043500;28;20148;-60
2022/06/30 03:13:47;;;;;;;3.90;3.10;;;20.10;68.00;;;;;;5047985;28;20100;-59
2022/06/30 03:16:12;;;;;;;6.38;3.42;;;20.00;67.90;;;;;;5044165;28;20040;-60
2022/06/30 03:18:39;;;;;;;5.80;3.00;;;20.00;67.90;;;;;;5043230;28;20033;-60
2022/06/30 03:21:06;;;;;;;7.05;3.20;;;20.00;68.20;;;;;;5045823;28;20029;-61
2022/06/30 03:23:31;;;;;;;4.57;3.40;;;20.00;68.30;;;;;;5054172;28;20052;-59
2022/06/30 03:25:57;;;;;;;4.88;3.33;;;20.00;68.20;;;;;;5055891;28;20049;-60
2022/06/30 03:28:23;;;;;;;5.70;3.20;;;19.90;68.30;;;;;;5053070;28;20137;-60
2022/06/30 03:30:49;;;;;;;6.72;3.85;;;20.00;68.50;;;;;;5046485;28;20037;-60
2022/06/30 03:33:18;;;;;;;4.18;3.42;;;19.90;68.70;;;;;;5041499;28;20048;-60
2022/06/30 03:35:45;;;;;;;8.52;4.20;;;19.90;69.20;;;;;;5056928;28;20037;-61
2022/06/30 03:38:11;;;;;;;4.53;3.20;;;19.90;68.90;;;;;;5042571;28;20026;-61
2022/06/30 03:40:37;;;;;;;5.15;3.03;;;19.90;69.00;;;;;;5046187;28;20033;-60
2022/06/30 03:43:03;;;;;;;4.22;3.17;;;19.90;69.00;;;;;;5044682;28;20043;-60
2022/06/30 03:45:29;;;;;;;5.45;3.35;;;19.80;68.90;;;;;;5047985;28;20047;-60
2022/06/30 03:47:55;;;;;;;6.78;4.00;;;19.90;69.00;;;;;;5048493;28;20017;-59
2022/06/30 03:50:21;;;;;;;28.35;17.52;;;19.80;69.00;;;;;;5044757;28;20542;-61
2022/06/30 03:52:46;;;;;;;36.53;21.48;;;19.80;69.00;;;;;;5049791;28;20100;-60
2022/06/30 03:55:13;;;;;;;31.05;21.50;;;19.90;69.10;;;;;;5056837;28;20065;-60
2022/06/30 03:57:39;;;;;;;12.00;8.10;;;19.90;69.20;;;;;;5049093;28;20056;-60
2022/06/30 04:00:06;;;;;;;8.10;4.93;;;19.80;69.10;;;;;;5050179;28;20034;-60
2022/06/30 04:02:32;;;;;;;9.80;6.97;;;19.80;69.30;;;;;;5045468;28;20025;-61
2022/06/30 04:04:58;;;;;;;8.43;5.53;;;19.90;69.40;;;;;;5064248;28;20365;-60
2022/06/30 04:07:24;;;;;;;8.02;4.90;;;19.80;69.40;;;;;;5041955;28;20045;-60
2022/06/30 04:09:49;;;;;;;6.60;4.88;;;19.80;69.40;;;;;;5042682;28;20071;-60
2022/06/30 04:12:15;;;;;;;6.82;3.75;;;19.80;69.50;;;;;;5036504;28;20442;-61
2022/06/30 04:14:41;;;;;;;5.07;3.15;;;19.90;69.50;;;;;;5046300;28;20097;-60
2022/06/30 04:17:07;;;;;;;4.10;2.90;;;19.90;69.50;;;;;;5046448;28;20028;-60
2022/06/30 04:19:33;;;;;;;6.10;3.30;;;19.90;69.60;;;;;;5039101;28;20116;-60
2022/06/30 04:21:58;;;;;;;5.65;3.58;;;20.00;69.70;;;;;;5042806;28;20171;-60
2022/06/30 04:24:24;;;;;;;7.47;4.55;;;20.00;70.40;;;;;;5051580;28;20021;-60
2022/06/30 04:26:50;;;;;;;5.80;3.88;;;20.10;69.70;;;;;;5044358;28;20046;-59
2022/06/30 04:29:15;;;;;;;5.70;3.58;;;20.10;69.70;;;;;;5037640;28;20022;-60
2022/06/30 04:34:25;;;;;;;5.13;3.05;;;20.20;69.60;;;;;;5044320;28;20052;-60
2022/06/30 04:36:51;;;;;;;6.95;3.20;;;20.30;69.50;;;;;;5057461;28;20029;-60
2022/06/30 04:39:17;;;;;;;6.03;3.55;;;20.30;70.00;;;;;;5048903;28;20029;-60
2022/06/30 04:41:43;;;;;;;6.68;3.50;;;20.30;69.20;;;;;;5049089;28;20064;-59
2022/06/30 04:44:08;;;;;;;4.75;3.38;;;20.40;69.30;;;;;;5043500;28;20029;-60
2022/06/30 04:46:34;;;;;;;4.90;3.17;;;20.40;69.40;;;;;;5045120;28;20037;-59
2022/06/30 04:49:00;;;;;;;7.07;3.47;;;20.50;69.30;;;;;;5038730;28;20079;-60
2022/06/30 04:51:25;;;;;;;4.90;3.47;;;20.60;69.30;;;;;;5043068;28;20017;-60
2022/06/30 04:53:52;;;;;;;6.22;3.38;;;20.70;69.30;;;;;;5049068;28;20468;-60
2022/06/30 04:56:18;;;;;;;4.70;3.63;;;20.70;69.30;;;;;;5047647;28;20091;-60
2022/06/30 04:58:44;;;;;;;5.70;3.25;;;20.80;69.30;;;;;;5043976;28;20044;-60
2022/06/30 05:01:11;;;;;;;4.95;3.70;;;20.90;69.20;;;;;;5045916;28;20063;-62
2022/06/30 05:03:37;;;;;;;6.00;3.70;;;21.00;69.70;;;;;;5039090;28;20087;-60
2022/06/30 05:06:04;;;;;;;6.32;3.13;;;21.10;68.90;;;;;;5057162;28;20025;-60
2022/06/30 05:08:31;;;;;;;3.88;3.00;;;21.10;68.80;;;;;;5043266;28;20025;-60
2022/06/30 05:10:57;;;;;;;10.40;3.70;;;21.20;68.70;;;;;;5047870;28;20040;-61
2022/06/30 05:13:23;;;;;;;6.00;3.70;;;21.30;68.70;;;;;;5041112;28;20038;-60
2022/06/30 05:15:48;;;;;;;5.78;3.50;;;21.40;68.70;;;;;;5045559;28;20476;-60
2022/06/30 05:18:14;;;;;;;5.28;3.67;;;21.40;68.80;;;;;;5042997;28;20030;-61
2022/06/30 05:20:41;;;;;;;10.32;3.70;;;21.50;68.90;;;;;;5043984;28;20029;-61
2022/06/30 05:23:07;;;;;;;10.68;4.22;;;21.60;68.90;;;;;;5041448;28;20029;-60
2022/06/30 05:28:17;;;;;;;8.15;3.35;;;21.80;68.90;;;;;;5042462;28;20431;-61
2022/06/30 05:30:43;;;;;;;7.20;3.63;;;21.90;68.60;;;;;;5045132;28;20025;-60
2022/06/30 05:33:09;;;;;;;6.38;3.47;;;22.00;68.50;;;;;;5045987;28;20041;-61
2022/06/30 05:35:35;;;;;;;5.63;3.80;;;22.20;68.70;;;;;;5046474;28;20025;-60
2022/06/30 05:38:01;;;;;;;7.25;4.32;;;22.30;68.50;;;;;;5044816;28;20033;-61
2022/06/30 05:40:27;;;;;;;5.75;3.95;;;22.40;68.40;;;;;;5052739;28;20029;-61
2022/06/30 05:42:53;;;;;;;7.35;3.80;;;22.50;68.10;;;;;;5042462;28;20086;-60
2022/06/30 05:45:19;;;;;;;11.25;4.55;;;22.60;67.70;;;;;;5036731;28;20108;-60
2022/06/30 05:47:48;;;;;;;13.18;4.60;;;22.70;67.40;;;;;;5048026;28;20025;-61
2022/06/30 05:50:14;;;;;;;7.88;4.32;;;22.80;67.30;;;;;;5042257;28;20033;-60
2022/06/30 05:52:43;;;;;;;5.43;4.07;;;22.90;67.10;;;;;;5040763;28;20033;-60
2022/06/30 05:55:09;;;;;;;7.82;4.25;;;23.00;67.00;;;;;;5049291;28;20029;-62
2022/06/30 05:57:48;;;;;;;7.32;4.70;;;23.20;66.80;;;;;;5042044;28;20029;-61
2022/06/30 06:00:14;;;;;;;7.43;3.72;;;23.30;66.50;;;;;;5043142;28;20029;-60
2022/06/30 06:02:40;;;;;;;7.47;3.83;;;23.40;66.40;;;;;;5042561;28;20040;-60
2022/06/30 06:05:05;;;;;;;10.68;4.55;;;23.50;66.10;;;;;;5046663;28;20033;-62
2022/06/30 06:07:31;;;;;;;14.80;5.05;;;23.60;66.00;;;;;;5051516;28;20039;-60
2022/06/30 06:09:57;;;;;;;9.27;4.07;;;23.70;65.50;;;;;;5053496;28;20033;-60
2022/06/30 06:12:22;;;;;;;9.93;4.72;;;23.80;65.50;;;;;;5041105;28;20034;-61
2022/06/30 06:14:48;;;;;;;8.23;4.20;;;23.90;65.60;;;;;;5042869;28;20120;-61
2022/06/30 06:17:14;;;;;;;6.47;3.88;;;24.00;65.50;;;;;;5050849;28;20037;-60
2022/06/30 06:19:39;;;;;;;6.78;3.65;;;24.10;65.30;;;;;;5061424;28;20053;-61
2022/06/30 06:22:05;;;;;;;8.18;4.05;;;24.20;65.30;;;;;;5043081;28;20412;-60
2022/06/30 06:24:31;;;;;;;12.93;4.30;;;24.30;65.10;;;;;;5049110;28;20112;-61
2022/06/30 06:26:56;;;;;;;6.90;4.35;;;24.50;64.80;;;;;;5041480;28;20045;-60
2022/06/30 06:29:22;;;;;;;7.07;3.72;;;24.60;64.50;;;;;;5033129;28;20071;-60
2022/06/30 06:31:48;;;;;;;6.20;3.97;;;24.70;64.20;;;;;;5047356;28;20033;-61
2022/06/30 06:34:13;;;;;;;7.97;3.97;;;24.80;64.00;;;;;;5042061;28;20091;-62
2022/06/30 06:36:39;;;;;;;5.47;3.95;;;24.90;63.70;;;;;;5043801;28;20048;-62
2022/06/30 06:39:05;;;;;;;8.88;4.43;;;25.00;63.50;;;;;;5050945;28;20030;-61
2022/06/30 06:41:31;;;;;;;6.72;4.60;;;25.10;63.10;;;;;;5044316;28;20068;-61
2022/06/30 06:43:57;;;;;;;7.15;4.63;;;25.20;62.90;;;;;;5040210;28;20492;-61
2022/06/30 06:46:26;;;;;;;10.35;4.75;;;25.30;62.90;;;;;;5043353;28;20033;-61
2022/06/30 06:49:00;;;;;;;9.57;5.18;;;25.40;62.60;;;;;;5044626;28;20037;-61
2022/06/30 06:51:26;;;;;;;9.45;4.47;;;25.50;62.30;;;;;;5040121;28;20025;-61
2022/06/30 06:53:52;;;;;;;15.68;5.15;;;25.60;62.20;;;;;;5045081;28;20121;-60
2022/06/30 06:56:18;;;;;;;6.50;4.35;;;25.70;61.90;;;;;;5054714;28;20026;-60
2022/06/30 06:58:44;;;;;;;6.60;4.35;;;25.80;61.80;;;;;;5044913;28;20076;-59
2022/06/30 07:01:10;;;;;;;9.57;4.68;;;25.90;61.40;;;;;;5049142;28;20025;-61
2022/06/30 07:03:37;;;;;;;6.97;5.07;;;26.10;60.90;;;;;;5041807;28;20036;-61
2022/06/30 07:06:03;;;;;;;8.65;4.55;;;26.20;60.40;;;;;;5045867;28;20039;-61
2022/06/30 07:08:28;;;;;;;6.20;4.72;;;26.30;60.60;;;;;;5050933;28;20025;-60
2022/06/30 07:10:56;;;;;;;10.18;4.93;;;26.40;60.70;;;;;;5047536;28;20037;-61
2022/06/30 07:13:26;;;;;;;10.73;5.68;;;26.50;60.50;;;;;;5045734;28;20033;-61
2022/06/30 07:15:52;;;;;;;5.82;4.90;;;26.60;60.40;;;;;;5047868;28;20379;-61
2022/06/30 07:18:18;;;;;;;14.10;5.20;;;26.70;60.20;;;;;;5041873;28;20057;-62
2022/06/30 07:20:43;;;;;;;9.77;4.38;;;26.80;59.70;;;;;;5042511;28;20030;-60
2022/06/30 07:23:09;;;;;;;9.65;5.13;;;27.00;59.60;;;;;;5050117;28;20041;-61
2022/06/30 07:25:35;;;;;;;6.47;3.90;;;27.10;59.40;;;;;;5046540;28;20036;-62
2022/06/30 07:28:02;;;;;;;6.05;3.67;;;27.20;58.90;;;;;;5051416;28;20556;-62
2022/06/30 07:30:27;;;;;;;7.45;3.63;;;27.30;58.60;;;;;;5047444;28;20065;-61
2022/06/30 07:32:53;;;;;;;5.78;3.63;;;27.50;58.90;;;;;;5045571;28;20044;-61
2022/06/30 07:35:19;;;;;;;4.20;2.97;;;27.60;58.80;;;;;;5048931;28;20022;-61
2022/06/30 07:37:45;;;;;;;6.63;3.28;;;27.70;58.10;;;;;;5047058;28;20044;-61
2022/06/30 07:40:12;;;;;;;6.13;3.58;;;27.80;57.90;;;;;;5048639;28;20045;-63
2022/06/30 07:42:38;;;;;;;5.90;3.05;;;27.90;57.40;;;;;;5049761;28;20068;-60
2022/06/30 07:45:05;;;;;;;8.50;3.92;;;28.00;57.40;;;;;;5045945;28;20025;-62
2022/06/30 07:47:31;;;;;;;10.38;3.42;;;28.10;56.90;;;;;;5055729;28;20025;-62
2022/06/30 07:49:58;;;;;;;5.50;2.88;;;28.20;56.90;;;;;;5042835;28;20102;-62
2022/06/30 07:52:23;;;;;;;7.90;3.75;;;28.30;56.70;;;;;;5050675;28;20049;-61
2022/06/30 07:54:51;;;;;;;6.63;3.03;;;28.40;56.70;;;;;;5041279;28;20029;-60
2022/06/30 07:57:17;;;;;;;5.07;2.58;;;28.50;56.80;;;;;;5047037;28;20025;-61
2022/06/30 07:59:43;;;;;;;6.65;2.63;;;28.60;56.80;;;;;;5054147;28;20090;-61
2022/06/30 08:02:08;;;;;;;10.55;3.30;;;28.70;56.70;;;;;;5044443;28;20052;-61
2022/06/30 08:04:35;;;;;;;8.95;2.63;;;28.80;56.50;;;;;;5043179;28;20333;-62
2022/06/30 08:07:02;;;;;;;7.35;2.85;;;28.90;55.90;;;;;;5060333;28;20025;-61
2022/06/30 08:09:28;;;;;;;6.13;2.60;;;29.00;55.60;;;;;;5042535;28;20033;-63
2022/06/30 08:11:54;;;;;;;5.50;2.67;;;29.10;55.60;;;;;;5039801;28;20037;-60
2022/06/30 08:14:21;;;;;;;6.18;2.80;;;29.20;55.10;;;;;;5038010;28;20030;-61
2022/06/30 08:16:47;;;;;;;5.43;2.42;;;29.30;54.90;;;;;;5048655;28;20041;-61
2022/06/30 08:19:13;;;;;;;6.07;2.63;;;29.30;55.00;;;;;;5036002;28;20034;-60
2022/06/30 08:21:38;;;;;;;5.93;2.50;;;29.40;54.80;;;;;;5040436;28;20029;-61
2022/06/30 08:24:04;;;;;;;6.53;2.88;;;29.40;54.40;;;;;;5047546;28;20017;-60
2022/06/30 08:26:31;;;;;;;4.57;3.25;;;29.50;54.20;;;;;;5050929;28;20047;-61
2022/06/30 08:28:57;;;;;;;3.50;2.53;;;29.60;53.80;;;;;;5044951;28;20033;-62
2022/06/30 08:31:22;;;;;;;5.20;2.45;;;29.60;53.70;;;;;;5051294;28;20056;-62
2022/06/30 08:33:50;;;;;;;3.67;2.53;;;29.70;53.50;;;;;;5045431;28;20041;-61
2022/06/30 08:36:17;;;;;;;6.07;2.83;;;29.70;53.50;;;;;;5049339;28;20027;-60
2022/06/30 08:38:43;;;;;;;4.82;3.13;;;29.80;53.00;;;;;;5044521;28;20033;-60
2022/06/30 08:43:54;;;;;;;4.53;2.55;;;29.90;52.30;;;;;;5034690;28;20037;-62
2022/06/30 08:46:22;;;;;;;8.30;2.83;;;29.90;52.70;;;;;;5056285;28;20144;-61
2022/06/30 08:48:48;;;;;;;8.38;2.67;;;30.00;52.60;;;;;;5042913;28;20036;-62
2022/06/30 08:51:17;;;;;;;4.13;2.90;;;30.00;52.50;;;;;;5053785;28;20033;-62
2022/06/30 08:53:53;;;;;;;6.35;2.10;;;30.10;53.10;;;;;;5045408;28;20041;-60
2022/06/30 08:56:20;;;;;;;2.97;2.22;;;30.20;52.40;;;;;;5043314;28;20081;-61
2022/06/30 08:58:49;;;;;;;3.65;2.15;;;30.30;51.70;;;;;;5049761;28;20021;-62
2022/06/30 09:01:14;;;;;;;4.35;2.30;;;30.40;51.30;;;;;;5047720;28;20117;-62
2022/06/30 09:03:41;;;;;;;4.35;2.42;;;30.50;50.70;;;;;;5048858;28;20030;-61
2022/06/30 09:06:06;;;;;;;6.25;2.35;;;30.50;50.90;;;;;;5056641;28;20025;-61
2022/06/30 09:08:32;;;;;;;3.30;2.55;;;30.60;50.70;;;;;;5043365;28;20040;-62
2022/06/30 09:10:58;;;;;;;3.70;2.25;;;30.60;50.00;;;;;;5054064;28;20017;-61
2022/06/30 09:13:25;;;;;;;3.40;2.22;;;30.60;49.70;;;;;;5046185;28;20029;-62
2022/06/30 09:15:51;;;;;;;6.55;2.67;;;30.50;49.60;;;;;;5045306;28;20029;-61
2022/06/30 09:18:25;;;;;;;4.85;2.28;;;30.30;49.30;;;;;;5048847;28;20052;-61
2022/06/30 09:20:53;;;;;;;3.38;2.20;;;30.20;49.10;;;;;;5050791;28;20064;-61
2022/06/30 09:23:20;;;;;;;6.60;2.80;;;30.10;49.80;;;;;;5054567;28;20025;-61
2022/06/30 09:25:51;;;;;;;6.15;2.33;;;30.10;49.70;;;;;;5047004;28;20040;-61
2022/06/30 09:28:38;;;;;;;3.63;1.80;;;30.10;49.60;;;;;;5040275;28;20049;-61
2022/06/30 09:31:03;;;;;;;3.80;2.10;;;30.10;48.80;;;;;;5041352;28;20076;-61
2022/06/30 09:33:36;;;;;;;5.35;2.20;;;30.20;50.10;;;;;;5055903;28;20038;-62
2022/06/30 09:36:23;;;;;;;5.50;1.97;;;30.30;49.70;;;;;;5052581;28;20219;-61
2022/06/30 09:39:19;;;;;;;5.13;2.17;;;30.50;50.30;;;;;;5037469;28;20816;-62
2022/06/30 09:41:47;;;;;;;5.35;1.83;;;30.70;49.20;;;;;;5034931;28;20050;-61
2022/06/30 09:44:16;;;;;;;5.55;1.85;;;30.80;48.90;;;;;;5040789;28;20034;-61
2022/06/30 09:47:02;;;;;;;3.97;1.60;;;30.90;49.20;;;;;;5054857;28;20025;-61
2022/06/30 09:49:36;;;;;;;5.40;2.78;;;31.10;49.30;;;;;;5045913;28;20021;-61
2022/06/30 09:52:05;;;;;;;3.83;2.13;;;31.30;48.40;;;;;;5041467;28;20033;-61
2022/06/30 09:54:35;;;;;;;8.63;1.55;;;31.40;48.00;;;;;;5042605;28;20033;-61
2022/06/30 09:57:00;;;;;;;5.35;2.10;;;31.50;47.90;;;;;;5047688;28;20095;-61
2022/06/30 09:59:26;;;;;;;6.18;1.77;;;31.50;47.40;;;;;;5041582;28;20037;-61
2022/06/30 10:01:55;;;;;;;3.92;2.03;;;31.50;47.50;;;;;;5047521;28;20029;-61
2022/06/30 10:04:21;;;;;;;4.82;1.98;;;31.60;47.30;;;;;;5046110;28;20081;-61
2022/06/30 10:06:47;;;;;;;4.68;1.88;;;31.70;46.90;;;;;;5056697;28;20045;-61
2022/06/30 10:09:17;;;;;;;4.13;2.08;;;31.80;46.70;;;;;;5042066;28;20026;-60
2022/06/30 10:11:47;;;;;;;4.57;2.10;;;31.90;45.10;;;;;;5044700;28;20037;-61
2022/06/30 10:14:15;;;;;;;5.65;1.83;;;32.00;45.60;;;;;;5038806;28;20456;-61
2022/06/30 10:16:43;;;;;;;3.03;1.67;;;32.10;46.00;;;;;;5045823;28;20064;-61
2022/06/30 10:19:12;;;;;;;5.05;1.88;;;32.20;45.80;;;;;;5042529;28;20026;-60
2022/06/30 10:21:39;;;;;;;2.35;1.73;;;32.40;44.50;;;;;;5056421;28;20433;-60
2022/06/30 10:24:08;;;;;;;11.02;2.20;;;32.40;44.20;;;;;;5040251;28;20093;-62
2022/06/30 10:29:19;;;;;;;4.68;1.90;;;32.60;44.30;;;;;;5042057;28;20039;-61
2022/06/30 10:32:27;;;;;;;4.05;1.77;;;32.60;44.40;;;;;;5033554;28;20085;-60
2022/06/30 10:35:04;;;;;;;3.40;1.90;;;32.50;44.60;;;;;;5033050;28;20061;-60
2022/06/30 10:37:45;;;;;;;6.22;1.88;;;32.50;44.40;;;;;;5043001;28;20067;-61
2022/06/30 10:40:36;;;;;;;4.40;1.73;;;32.50;43.30;;;;;;5045909;28;20044;-61
2022/06/30 10:43:02;;;;;;;4.45;1.80;;;32.50;44.10;;;;;;5044771;28;20049;-60
2022/06/30 10:45:31;;;;;;;5.70;2.38;;;32.50;44.10;;;;;;5044913;28;20141;-62
2022/06/30 10:48:07;;;;;;;4.63;2.10;;;32.40;43.40;;;;;;5048395;28;20031;-61
2022/06/30 10:50:42;;;;;;;3.95;1.40;;;32.50;43.40;;;;;;5045658;28;20037;-60
2022/06/30 10:53:09;;;;;;;7.38;1.80;;;32.50;42.90;;;;;;5048164;28;20034;-60
2022/06/30 10:55:42;;;;;;;5.32;1.73;;;32.50;43.60;;;;;;5054774;28;20033;-61
2022/06/30 10:58:08;;;;;;;4.63;1.60;;;32.50;42.30;;;;;;5052109;28;20021;-60
2022/06/30 11:00:44;;;;;;;5.78;1.67;;;32.50;43.20;;;;;;5045461;28;20488;-60
2022/06/30 11:03:31;;;;;;;5.20;1.60;;;32.60;41.10;;;;;;5044302;28;20047;-60
2022/06/30 11:06:04;;;;;;;3.33;1.50;;;32.70;41.60;;;;;;5048754;28;20088;-62
2022/06/30 11:11:28;;;;;;;2.55;1.58;;;32.80;42.00;;;;;;5047760;28;20033;-62
2022/06/30 11:14:03;;;;;;;3.80;1.60;;;32.80;42.80;;;;;;5051033;28;20124;-62
2022/06/30 11:16:36;;;;;;;4.03;2.00;;;33.00;42.20;;;;;;5045621;28;20033;-60
2022/06/30 11:19:04;;;;;;;;;;;33.00;40.20;;;;;;5044558;28;20013;-60
2022/06/30 11:21:31;;;;;;;4.55;1.70;;;33.10;42.20;;;;;;5047618;28;19913;-61
2022/06/30 11:24:01;;;;;;;5.22;1.90;;;33.20;41.60;;;;;;5051455;28;20396;-60
2022/06/30 11:29:14;;;;;;;5.80;1.50;;;33.30;42.80;;;;;;5045357;28;20052;-60
2022/06/30 11:31:42;;;;;;;7.55;1.77;;;33.30;42.20;;;;;;5056514;28;20484;-61
2022/06/30 11:34:09;;;;;;;2.97;1.40;;;33.30;41.70;;;;;;5051271;28;20050;-61
2022/06/30 11:36:37;;;;;;;6.20;1.70;;;33.40;41.60;;;;;;5037083;28;20030;-62
2022/06/30 11:39:04;;;;;;;3.63;1.63;;;33.50;41.30;;;;;;5043765;28;20036;-61
2022/06/30 11:44:17;;;;;;;4.55;1.80;;;33.70;41.80;;;;;;5050097;28;20368;-61
2022/06/30 11:47:01;;;;;;;2.13;1.50;;;33.80;40.70;;;;;;5032874;28;20045;-60
2022/06/30 11:49:57;;;;;;;3.47;1.90;;;33.90;40.50;;;;;;5045317;28;20025;-61
2022/06/30 11:52:29;;;;;;;3.25;1.55;;;34.00;39.80;;;;;;5036557;28;20029;-61
2022/06/30 11:54:55;;;;;;;6.65;1.70;;;34.00;38.90;;;;;;5042457;28;20045;-62
2022/06/30 11:57:23;;;;;;;9.95;1.88;;;34.00;38.80;;;;;;5043734;28;20025;-61
2022/06/30 11:59:55;;;;;;;7.32;1.70;;;34.00;39.30;;;;;;5046959;28;20095;-61
2022/06/30 12:02:21;;;;;;;5.88;1.50;;;34.00;39.40;;;;;;5036149;28;20040;-60
2022/06/30 12:04:51;;;;;;;5.97;2.13;;;34.00;40.00;;;;;;5044605;28;20037;-62
2022/06/30 12:07:18;;;;;;;3.38;1.45;;;34.00;40.50;;;;;;5043695;28;20038;-62
2022/06/30 12:09:45;;;;;;;5.60;1.52;;;34.10;40.70;;;;;;5050153;28;20049;-60
2022/06/30 12:12:12;;;;;;;4.55;1.52;;;34.20;39.60;;;;;;5055067;28;20033;-60
2022/06/30 12:14:39;;;;;;;3.03;1.50;;;34.30;39.00;;;;;;5043614;28;20034;-60
2022/06/30 12:17:07;;;;;;;4.75;1.80;;;34.30;39.90;;;;;;5048040;28;20029;-59
2022/06/30 12:19:34;;;;;;;2.30;1.60;;;34.40;39.00;;;;;;5045713;28;20022;-60
2022/06/30 12:22:02;;;;;;;4.63;1.90;;;34.50;39.00;;;;;;5040840;28;20037;-60
2022/06/30 12:24:28;;;;;;;7.88;2.05;;;34.50;38.50;;;;;;5050239;28;20033;-61
2022/06/30 12:26:57;;;;;;;4.78;1.60;;;34.60;39.10;;;;;;4957141;28;20029;-61
2022/06/30 12:29:25;;;;;;;3.90;1.70;;;34.70;39.50;;;;;;5036653;28;20133;-60
2022/06/30 12:32:07;;;;;;;5.15;1.70;;;34.70;38.30;;;;;;5045182;28;20472;-61
2022/06/30 12:34:48;;;;;;;4.82;1.50;;;34.80;38.80;;;;;;5048516;28;20044;-62
2022/06/30 12:37:14;;;;;;;7.25;2.00;;;34.90;38.30;;;;;;5043637;28;20021;-61
2022/06/30 12:39:46;;;;;;;4.07;1.55;;;34.90;37.90;;;;;;5038548;28;20068;-60
2022/06/30 12:42:12;;;;;;;3.03;1.50;;;34.80;38.30;;;;;;5043686;28;20048;-60
2022/06/30 12:44:38;;;;;;;2.25;1.30;;;34.80;37.70;;;;;;5041154;28;20045;-61
2022/06/30 12:47:04;;;;;;;4.07;1.50;;;34.80;37.60;;;;;;5039879;28;20021;-60
2022/06/30 12:49:30;;;;;;;4.28;1.90;;;34.80;37.20;;;;;;5037044;28;20033;-61
2022/06/30 12:51:55;;;;;;;3.22;1.90;;;34.80;38.00;;;;;;5040443;28;20029;-60
2022/06/30 12:54:26;;;;;;;2.55;1.63;;;34.90;38.30;;;;;;5051903;28;20038;-61
2022/06/30 12:57:04;;;;;;;5.00;1.88;;;35.00;37.40;;;;;;5040212;28;20113;-61
2022/06/30 12:59:30;;;;;;;3.92;1.30;;;35.00;37.50;;;;;;5029343;28;20029;-60
2022/06/30 13:02:00;;;;;;;6.47;1.95;;;35.10;37.30;;;;;;5045845;28;20033;-61
2022/06/30 13:04:33;;;;;;;2.22;1.58;;;35.20;37.00;;;;;;5035323;28;20030;-61
2022/06/30 13:07:00;;;;;;;2.80;1.23;;;35.30;36.70;;;;;;5044669;28;20049;-61
2022/06/30 13:09:27;;;;;;;5.05;2.05;;;35.30;37.30;;;;;;5040284;28;20022;-61